Trout Dale, Virginia
Current Conditions -  °F | °C
As of 8:15 AM on Thursday 18 Dec 2014 (Local Time) from KMKJ Reporting Station
Clear Clear  
Wind Chill: 19°   Ceiling: Unl
Heat Index: 28°   Visibility: 10mi
Dew Point: 25°   Wind: 9mph
Humidity: 88%   Direction: 240°WSW
Pressure: 30.16"   Gusts: NA
Location:  36.7°N, 81.44°W
Report Text: KMKJ 181315Z AUTO 24008KT 10SM CLR M02/M04 A3016 RMK AO2 T10231041
Loading
Personal Weather Stations






























Interactive Weather Map New forecast layout! Learn more

10-Day Weather Forecast

Advertisements
Track Severe Weather on mobile